sensor_id;sensor_type;location;lat;lon;timestamp;pressure;altitude;pressure_sealevel;temperature;humidity
57572;BME280;44459;43.522;24.470;2023-02-12T00:02:16;101314.69;;;-1.03;80.26
57572;BME280;44459;43.522;24.470;2023-02-12T00:04:42;101304.44;;;-1.02;80.19
57572;BME280;44459;43.522;24.470;2023-02-12T00:07:08;101313.78;;;-1.04;80.52
57572;BME280;44459;43.522;24.470;2023-02-12T00:09:34;101303.34;;;-1.05;80.62
57572;BME280;44459;43.522;24.470;2023-02-12T00:11:59;101308.72;;;-1.02;80.41
57572;BME280;44459;43.522;24.470;2023-02-12T00:14:24;101320.81;;;-0.89;79.77
57572;BME280;44459;43.522;24.470;2023-02-12T00:16:50;101313.50;;;-0.83;79.38
57572;BME280;44459;43.522;24.470;2023-02-12T00:19:15;101304.72;;;-0.72;78.80
57572;BME280;44459;43.522;24.470;2023-02-12T00:21:41;101299.53;;;-0.72;78.59
57572;BME280;44459;43.522;24.470;2023-02-12T00:24:06;101319.50;;;-0.71;78.93
57572;BME280;44459;43.522;24.470;2023-02-12T00:26:32;101317.81;;;-0.71;79.09
57572;BME280;44459;43.522;24.470;2023-02-12T00:28:57;101319.69;;;-0.68;78.82
57572;BME280;44459;43.522;24.470;2023-02-12T00:31:25;101324.09;;;-0.67;78.62
57572;BME280;44459;43.522;24.470;2023-02-12T00:33:51;101323.06;;;-0.69;78.96
57572;BME280;44459;43.522;24.470;2023-02-12T00:36:19;101321.50;;;-0.67;78.79
57572;BME280;44459;43.522;24.470;2023-02-12T00:38:45;101311.50;;;-0.74;78.96
57572;BME280;44459;43.522;24.470;2023-02-12T00:41:11;101325.16;;;-0.77;79.38
57572;BME280;44459;43.522;24.470;2023-02-12T00:43:37;101321.25;;;-0.83;78.59
57572;BME280;44459;43.522;24.470;2023-02-12T00:46:03;101315.66;;;-0.76;79.09
57572;BME280;44459;43.522;24.470;2023-02-12T00:48:29;101329.13;;;-0.82;78.82
57572;BME280;44459;43.522;24.470;2023-02-12T00:50:55;101322.75;;;-0.87;78.89
57572;BME280;44459;43.522;24.470;2023-02-12T00:53:20;101329.41;;;-0.90;78.51
57572;BME280;44459;43.522;24.470;2023-02-12T00:55:46;101327.47;;;-0.93;77.75
57572;BME280;44459;43.522;24.470;2023-02-12T00:58:11;101314.00;;;-1.01;77.76
57572;BME280;44459;43.522;24.470;2023-02-12T01:00:37;101312.63;;;-0.95;78.12
57572;BME280;44459;43.522;24.470;2023-02-12T01:03:02;101306.66;;;-0.94;78.29
57572;BME280;44459;43.522;24.470;2023-02-12T01:05:28;101298.69;;;-0.97;78.17
57572;BME280;44459;43.522;24.470;2023-02-12T01:07:55;101301.94;;;-1.00;78.20
57572;BME280;44459;43.522;24.470;2023-02-12T01:10:21;101301.66;;;-1.05;78.45
57572;BME280;44459;43.522;24.470;2023-02-12T01:12:46;101278.59;;;-1.13;77.95
57572;BME280;44459;43.522;24.470;2023-02-12T01:15:13;101275.00;;;-1.15;78.11
57572;BME280;44459;43.522;24.470;2023-02-12T01:17:38;101275.22;;;-1.12;78.26
57572;BME280;44459;43.522;24.470;2023-02-12T01:20:06;101264.84;;;-1.12;78.43
57572;BME280;44459;43.522;24.470;2023-02-12T01:22:36;101250.09;;;-1.13;78.45
57572;BME280;44459;43.522;24.470;2023-02-12T01:25:03;101249.19;;;-1.14;78.84
57572;BME280;44459;43.522;24.470;2023-02-12T01:27:28;101256.38;;;-1.10;79.09
57572;BME280;44459;43.522;24.470;2023-02-12T01:29:53;101244.34;;;-1.09;79.21
57572;BME280;44459;43.522;24.470;2023-02-12T01:32:19;101252.09;;;-1.09;79.69
57572;BME280;44459;43.522;24.470;2023-02-12T01:34:44;101244.81;;;-1.15;80.13
57572;BME280;44459;43.522;24.470;2023-02-12T01:37:10;101248.53;;;-1.11;79.42
57572;BME280;44459;43.522;24.470;2023-02-12T01:39:35;101247.19;;;-1.18;79.32
57572;BME280;44459;43.522;24.470;2023-02-12T01:42:01;101257.16;;;-1.11;78.89
57572;BME280;44459;43.522;24.470;2023-02-12T01:44:29;101255.44;;;-0.98;77.95
57572;BME280;44459;43.522;24.470;2023-02-12T01:47:03;101251.56;;;-0.92;78.36
57572;BME280;44459;43.522;24.470;2023-02-12T01:49:38;101244.00;;;-0.76;76.72
57572;BME280;44459;43.522;24.470;2023-02-12T01:52:10;101232.84;;;-0.62;75.99
57572;BME280;44459;43.522;24.470;2023-02-12T01:54:39;101241.34;;;-0.51;75.17
57572;BME280;44459;43.522;24.470;2023-02-12T01:57:05;101243.75;;;-0.41;74.03
57572;BME280;44459;43.522;24.470;2023-02-12T01:59:33;101236.38;;;-0.35;73.79
57572;BME280;44459;43.522;24.470;2023-02-12T02:01:59;101234.25;;;-0.27;72.94
57572;BME280;44459;43.522;24.470;2023-02-12T02:04:27;101250.72;;;-0.14;73.56
57572;BME280;44459;43.522;24.470;2023-02-12T02:07:03;101259.50;;;-0.12;73.31
57572;BME280;44459;43.522;24.470;2023-02-12T02:09:32;101264.72;;;-0.12;73.36
57572;BME280;44459;43.522;24.470;2023-02-12T02:11:59;101261.50;;;-0.08;72.89
57572;BME280;44459;43.522;24.470;2023-02-12T02:14:44;101253.13;;;-0.04;73.32
57572;BME280;44459;43.522;24.470;2023-02-12T02:30:33;101225.19;;;-0.08;74.45
57572;BME280;44459;43.522;24.470;2023-02-12T02:33:07;101231.34;;;-0.06;74.56
57572;BME280;44459;43.522;24.470;2023-02-12T02:38:20;101233.75;;;-0.09;75.84
57572;BME280;44459;43.522;24.470;2023-02-12T02:43:22;101214.31;;;-0.15;76.80
57572;BME280;44459;43.522;24.470;2023-02-12T02:46:13;101224.09;;;-0.11;77.12
57572;BME280;44459;43.522;24.470;2023-02-12T02:48:45;101230.19;;;-0.11;77.50
57572;BME280;44459;43.522;24.470;2023-02-12T02:51:17;101222.09;;;-0.15;77.50
57572;BME280;44459;43.522;24.470;2023-02-12T02:53:50;101234.56;;;-0.10;77.19
57572;BME280;44459;43.522;24.470;2023-02-12T02:56:19;101230.38;;;-0.08;76.99
57572;BME280;44459;43.522;24.470;2023-02-12T02:58:55;101215.03;;;-0.18;77.32
57572;BME280;44459;43.522;24.470;2023-02-12T03:02:07;101242.94;;;-0.01;77.07
57572;BME280;44459;43.522;24.470;2023-02-12T03:04:38;101242.94;;;-0.01;76.61
57572;BME280;44459;43.522;24.470;2023-02-12T03:07:25;101243.63;;;-0.03;77.39
57572;BME280;44459;43.522;24.470;2023-02-12T03:09:58;101240.84;;;-0.06;76.88
57572;BME280;44459;43.522;24.470;2023-02-12T03:15:08;101240.34;;;-0.01;77.71
57572;BME280;44459;43.522;24.470;2023-02-12T03:17:38;101245.94;;;0.06;77.80
57572;BME280;44459;43.522;24.470;2023-02-12T03:20:10;101248.81;;;0.10;77.21
57572;BME280;44459;43.522;24.470;2023-02-12T03:22:40;101247.09;;;0.11;77.55
57572;BME280;44459;43.522;24.470;2023-02-12T03:25:11;101253.38;;;0.14;77.55
57572;BME280;44459;43.522;24.470;2023-02-12T03:27:46;101245.88;;;0.19;77.23
57572;BME280;44459;43.522;24.470;2023-02-12T03:30:14;101232.91;;;0.19;77.83
57572;BME280;44459;43.522;24.470;2023-02-12T03:35:41;101247.38;;;0.28;77.51
57572;BME280;44459;43.522;24.470;2023-02-12T03:38:38;101246.03;;;0.35;77.79
57572;BME280;44459;43.522;24.470;2023-02-12T03:41:29;101257.44;;;0.37;77.50
57572;BME280;44459;43.522;24.470;2023-02-12T03:44:36;101250.25;;;0.33;77.59
57572;BME280;44459;43.522;24.470;2023-02-12T03:52:18;101264.94;;;0.32;78.06
57572;BME280;44459;43.522;24.470;2023-02-12T03:54:43;101262.44;;;0.34;78.24
57572;BME280;44459;43.522;24.470;2023-02-12T03:57:12;101271.59;;;0.42;78.26
57572;BME280;44459;43.522;24.470;2023-02-12T03:59:40;101260.03;;;0.37;78.05
57572;BME280;44459;43.522;24.470;2023-02-12T04:02:06;101263.44;;;0.36;78.45
57572;BME280;44459;43.522;24.470;2023-02-12T04:04:31;101263.44;;;0.36;78.46
57572;BME280;44459;43.522;24.470;2023-02-12T04:06:57;101262.53;;;0.35;78.86
57572;BME280;44459;43.522;24.470;2023-02-12T04:09:25;101255.44;;;0.33;78.24
57572;BME280;44459;43.522;24.470;2023-02-12T04:12:24;101260.75;;;0.34;78.66
57572;BME280;44459;43.522;24.470;2023-02-12T04:17:56;101269.81;;;0.28;78.97
57572;BME280;44459;43.522;24.470;2023-02-12T04:20:50;101261.44;;;0.32;78.92
57572;BME280;44459;43.522;24.470;2023-02-12T04:23:48;101259.56;;;0.29;78.91
57572;BME280;44459;43.522;24.470;2023-02-12T04:32:31;101269.94;;;0.29;79.00
57572;BME280;44459;43.522;24.470;2023-02-12T04:35:00;101269.16;;;0.30;78.81
57572;BME280;44459;43.522;24.470;2023-02-12T04:37:34;101274.22;;;0.29;79.30
57572;BME280;44459;43.522;24.470;2023-02-12T04:40:05;101269.63;;;0.25;79.71
57572;BME280;44459;43.522;24.470;2023-02-12T04:42:47;101263.56;;;0.24;79.89
57572;BME280;44459;43.522;24.470;2023-02-12T04:45:17;101278.06;;;0.21;80.09
57572;BME280;44459;43.522;24.470;2023-02-12T04:47:45;101277.25;;;0.22;79.56
57572;BME280;44459;43.522;24.470;2023-02-12T04:50:11;101280.53;;;0.19;79.59
57572;BME280;44459;43.522;24.470;2023-02-12T04:52:36;101277.34;;;0.23;79.97
57572;BME280;44459;43.522;24.470;2023-02-12T04:55:02;101292.59;;;0.32;79.59
57572;BME280;44459;43.522;24.470;2023-02-12T04:57:27;101296.00;;;0.31;79.59
57572;BME280;44459;43.522;24.470;2023-02-12T04:59:53;101305.50;;;0.30;79.83
57572;BME280;44459;43.522;24.470;2023-02-12T05:02:18;101318.66;;;0.33;79.83
57572;BME280;44459;43.522;24.470;2023-02-12T05:04:44;101330.34;;;0.40;80.03
57572;BME280;44459;43.522;24.470;2023-02-12T05:07:10;101336.31;;;0.39;80.21
57572;BME280;44459;43.522;24.470;2023-02-12T05:09:36;101339.63;;;0.36;80.15
57572;BME280;44459;43.522;24.470;2023-02-12T05:12:01;101333.47;;;0.34;80.34
57572;BME280;44459;43.522;24.470;2023-02-12T05:14:27;101340.34;;;0.34;80.45
57572;BME280;44459;43.522;24.470;2023-02-12T05:16:52;101336.72;;;0.32;80.65
57572;BME280;44459;43.522;24.470;2023-02-12T05:19:17;101345.53;;;0.34;80.96
57572;BME280;44459;43.522;24.470;2023-02-12T05:21:43;101340.75;;;0.27;81.99
57572;BME280;44459;43.522;24.470;2023-02-12T05:24:08;101338.88;;;0.24;81.88
57572;BME280;44459;43.522;24.470;2023-02-12T05:26:34;101352.63;;;0.23;82.35
57572;BME280;44459;43.522;24.470;2023-02-12T05:29:00;101358.03;;;0.26;82.69
57572;BME280;44459;43.522;24.470;2023-02-12T05:31:26;101360.69;;;0.28;82.12
57572;BME280;44459;43.522;24.470;2023-02-12T05:33:51;101363.41;;;0.29;81.93
57572;BME280;44459;43.522;24.470;2023-02-12T05:36:20;101350.03;;;0.23;82.34
57572;BME280;44459;43.522;24.470;2023-02-12T05:38:46;101368.09;;;0.22;81.94
57572;BME280;44459;43.522;24.470;2023-02-12T05:41:14;101364.59;;;0.21;82.38
57572;BME280;44459;43.522;24.470;2023-02-12T05:43:40;101370.41;;;0.17;82.69
57572;BME280;44459;43.522;24.470;2023-02-12T05:46:07;101368.50;;;0.15;81.56
57572;BME280;44459;43.522;24.470;2023-02-12T05:48:33;101377.56;;;0.21;81.68
57572;BME280;44459;43.522;24.470;2023-02-12T05:53:28;101395.66;;;0.33;82.26
57572;BME280;44459;43.522;24.470;2023-02-12T05:55:54;101385.16;;;0.31;82.29
57572;BME280;44459;43.522;24.470;2023-02-12T05:58:19;101378.19;;;0.30;82.38
57572;BME280;44459;43.522;24.470;2023-02-12T06:00:45;101383.47;;;0.32;82.39
57572;BME280;44459;43.522;24.470;2023-02-12T06:03:10;101382.56;;;0.31;82.71
57572;BME280;44459;43.522;24.470;2023-02-12T06:05:35;101394.88;;;0.34;82.55
57572;BME280;44459;43.522;24.470;2023-02-12T06:08:01;101388.84;;;0.35;82.46
57572;BME280;44459;43.522;24.470;2023-02-12T06:10:26;101399.47;;;0.38;82.47
57572;BME280;44459;43.522;24.470;2023-02-12T06:12:53;101395.66;;;0.33;82.94
57572;BME280;44459;43.522;24.470;2023-02-12T06:15:19;101401.06;;;0.36;83.14
57572;BME280;44459;43.522;24.470;2023-02-12T06:17:44;101395.47;;;0.30;83.04
57572;BME280;44459;43.522;24.470;2023-02-12T06:20:10;101412.63;;;0.28;83.24
57572;BME280;44459;43.522;24.470;2023-02-12T06:22:35;101409.63;;;0.22;83.98
57572;BME280;44459;43.522;24.470;2023-02-12T06:25:02;101417.94;;;0.16;84.24
57572;BME280;44459;43.522;24.470;2023-02-12T06:27:28;101405.66;;;0.14;84.10
57572;BME280;44459;43.522;24.470;2023-02-12T06:29:53;101416.44;;;0.20;83.82
57572;BME280;44459;43.522;24.470;2023-02-12T06:32:20;101410.47;;;0.21;83.46
57572;BME280;44459;43.522;24.470;2023-02-12T06:34:46;101420.53;;;0.29;83.32
57572;BME280;44459;43.522;24.470;2023-02-12T06:37:12;101413.13;;;0.35;82.75
57572;BME280;44459;43.522;24.470;2023-02-12T06:39:37;101424.41;;;0.49;81.84
57572;BME280;44459;43.522;24.470;2023-02-12T06:42:03;101419.34;;;0.50;81.20
57572;BME280;44459;43.522;24.470;2023-02-12T06:44:28;101421.59;;;0.59;81.31
57572;BME280;44459;43.522;24.470;2023-02-12T06:46:54;101412.81;;;0.70;81.04
57572;BME280;44459;43.522;24.470;2023-02-12T06:49:19;101422.38;;;0.84;81.40
57572;BME280;44459;43.522;24.470;2023-02-12T06:51:44;101433.78;;;0.99;81.65
57572;BME280;44459;43.522;24.470;2023-02-12T06:54:15;101429.25;;;1.10;81.75
57572;BME280;44459;43.522;24.470;2023-02-12T06:56:41;101436.88;;;1.22;81.03
57572;BME280;44459;43.522;24.470;2023-02-12T06:59:12;101445.00;;;1.26;80.54
57572;BME280;44459;43.522;24.470;2023-02-12T07:01:38;101451.88;;;1.26;80.34
57572;BME280;44459;43.522;24.470;2023-02-12T07:04:04;101443.28;;;1.27;80.14
57572;BME280;44459;43.522;24.470;2023-02-12T07:06:30;101454.00;;;1.31;79.54
57572;BME280;44459;43.522;24.470;2023-02-12T07:08:58;101455.88;;;1.34;79.34
57572;BME280;44459;43.522;24.470;2023-02-12T07:11:25;101461.81;;;1.46;78.62
57572;BME280;44459;43.522;24.470;2023-02-12T07:13:51;101448.06;;;1.62;79.13
57572;BME280;44459;43.522;24.470;2023-02-12T07:16:16;101457.06;;;1.81;78.39
57572;BME280;44459;43.522;24.470;2023-02-12T07:18:42;101463.50;;;2.01;77.48
57572;BME280;44459;43.522;24.470;2023-02-12T07:21:09;101466.63;;;2.25;77.76
57572;BME280;44459;43.522;24.470;2023-02-12T07:23:35;101470.41;;;2.44;75.54
57572;BME280;44459;43.522;24.470;2023-02-12T07:26:07;101478.31;;;2.46;75.38
57572;BME280;44459;43.522;24.470;2023-02-12T07:28:33;101478.38;;;2.62;75.38
57572;BME280;44459;43.522;24.470;2023-02-12T07:31:00;101465.16;;;2.74;74.94
57572;BME280;44459;43.522;24.470;2023-02-12T07:33:29;101459.72;;;2.85;74.60
57572;BME280;44459;43.522;24.470;2023-02-12T07:35:59;101480.69;;;2.72;73.79
57572;BME280;44459;43.522;24.470;2023-02-12T07:38:24;101480.69;;;2.87;74.02
57572;BME280;44459;43.522;24.470;2023-02-12T07:40:49;101494.50;;;3.00;73.94
57572;BME280;44459;43.522;24.470;2023-02-12T07:43:15;101489.47;;;2.89;74.08
57572;BME280;44459;43.522;24.470;2023-02-12T07:45:40;101486.34;;;2.94;73.96
57572;BME280;44459;43.522;24.470;2023-02-12T07:48:06;101492.78;;;3.01;73.74
57572;BME280;44459;43.522;24.470;2023-02-12T07:50:31;101479.13;;;3.05;73.56
57572;BME280;44459;43.522;24.470;2023-02-12T07:52:57;101478.50;;;2.94;73.44
57572;BME280;44459;43.522;24.470;2023-02-12T07:55:22;101481.78;;;3.07;73.66
57572;BME280;44459;43.522;24.470;2023-02-12T07:57:53;101482.53;;;3.04;73.57
57572;BME280;44459;43.522;24.470;2023-02-12T08:00:18;101490.41;;;3.05;73.94
57572;BME280;44459;43.522;24.470;2023-02-12T08:02:50;101483.44;;;3.04;73.67
57572;BME280;44459;43.522;24.470;2023-02-12T08:05:16;101499.66;;;2.84;73.29
57572;BME280;44459;43.522;24.470;2023-02-12T08:07:41;101498.75;;;2.84;73.91
57572;BME280;44459;43.522;24.470;2023-02-12T08:10:07;101495.88;;;2.94;73.96
57572;BME280;44459;43.522;24.470;2023-02-12T08:12:32;101500.75;;;3.19;73.88
57572;BME280;44459;43.522;24.470;2023-02-12T08:14:58;101490.16;;;3.32;73.06
57572;BME280;44459;43.522;24.470;2023-02-12T08:17:23;101494.44;;;3.46;72.26
57572;BME280;44459;43.522;24.470;2023-02-12T08:19:49;101486.59;;;3.46;72.09
57572;BME280;44459;43.522;24.470;2023-02-12T08:22:14;101482.84;;;3.73;71.94
57572;BME280;44459;43.522;24.470;2023-02-12T08:24:40;101497.69;;;3.90;72.10
57572;BME280;44459;43.522;24.470;2023-02-12T08:27:06;101499.72;;;3.96;72.04
57572;BME280;44459;43.522;24.470;2023-02-12T08:29:32;101504.69;;;4.24;70.53
57572;BME280;44459;43.522;24.470;2023-02-12T08:32:01;101500.75;;;4.32;67.59
57572;BME280;44459;43.522;24.470;2023-02-12T08:34:33;101498.88;;;4.29;66.73
57572;BME280;44459;43.522;24.470;2023-02-12T08:36:59;101509.19;;;4.10;67.60
57572;BME280;44459;43.522;24.470;2023-02-12T08:39:27;101511.25;;;4.16;68.90
57572;BME280;44459;43.522;24.470;2023-02-12T08:41:54;101516.25;;;3.95;68.41
57572;BME280;44459;43.522;24.470;2023-02-12T08:44:20;101517.88;;;3.77;68.63
57572;BME280;44459;43.522;24.470;2023-02-12T08:46:48;101527.56;;;3.63;68.98
57572;BME280;44459;43.522;24.470;2023-02-12T08:49:17;101537.44;;;3.52;70.70
57572;BME280;44459;43.522;24.470;2023-02-12T08:51:45;101532.84;;;3.65;70.52
57572;BME280;44459;43.522;24.470;2023-02-12T08:54:17;101539.97;;;3.83;70.25
57572;BME280;44459;43.522;24.470;2023-02-12T08:56:43;101545.09;;;3.82;70.93
57572;BME280;44459;43.522;24.470;2023-02-12T08:59:13;101557.94;;;3.93;71.39
57572;BME280;44459;43.522;24.470;2023-02-12T09:01:40;101558.53;;;3.88;69.98
57572;BME280;44459;43.522;24.470;2023-02-12T09:04:07;101555.22;;;3.76;69.86
57572;BME280;44459;43.522;24.470;2023-02-12T09:06:34;101565.50;;;3.73;70.96
57572;BME280;44459;43.522;24.470;2023-02-12T09:09:00;101567.59;;;3.78;70.69
57572;BME280;44459;43.522;24.470;2023-02-12T09:11:27;101577.19;;;3.79;71.21
57572;BME280;44459;43.522;24.470;2023-02-12T09:14:00;101580.63;;;3.78;71.64
57572;BME280;44459;43.522;24.470;2023-02-12T09:16:27;101587.94;;;3.69;71.94
57572;BME280;44459;43.522;24.470;2023-02-12T09:18:53;101594.13;;;3.55;72.21
57572;BME280;44459;43.522;24.470;2023-02-12T09:21:19;101604.78;;;3.43;73.72
57572;BME280;44459;43.522;24.470;2023-02-12T09:23:45;101605.19;;;3.51;74.20
57572;BME280;44459;43.522;24.470;2023-02-12T09:26:13;101609.47;;;3.65;74.63
57572;BME280;44459;43.522;24.470;2023-02-12T09:28:40;101609.03;;;3.58;71.70
57572;BME280;44459;43.522;24.470;2023-02-12T09:31:14;101603.94;;;3.75;72.43
57572;BME280;44459;43.522;24.470;2023-02-12T09:33:40;101612.25;;;3.68;70.97
57572;BME280;44459;43.522;24.470;2023-02-12T09:36:08;101613.25;;;3.70;70.88
57572;BME280;44459;43.522;24.470;2023-02-12T09:38:34;101612.09;;;3.65;71.17
57572;BME280;44459;43.522;24.470;2023-02-12T09:41:13;101625.78;;;3.61;70.87
57572;BME280;44459;43.522;24.470;2023-02-12T09:46:32;101614.09;;;3.54;71.98
57572;BME280;44459;43.522;24.470;2023-02-12T09:49:23;101616.28;;;3.78;73.49
57572;BME280;44459;43.522;24.470;2023-02-12T09:51:51;101619.97;;;3.81;70.85
57572;BME280;44459;43.522;24.470;2023-02-12T09:54:21;101629.53;;;3.81;70.99
57572;BME280;44459;43.522;24.470;2023-02-12T09:56:54;101627.38;;;3.74;69.84
57572;BME280;44459;43.522;24.470;2023-02-12T09:59:38;101623.59;;;3.69;71.72
57572;BME280;44459;43.522;24.470;2023-02-12T10:02:13;101617.91;;;3.76;71.15
57572;BME280;44459;43.522;24.470;2023-02-12T10:04:41;101630.31;;;3.80;70.22
57572;BME280;44459;43.522;24.470;2023-02-12T10:12:52;101620.78;;;3.96;71.29
57572;BME280;44459;43.522;24.470;2023-02-12T10:15:45;101629.78;;;4.01;71.36
57572;BME280;44459;43.522;24.470;2023-02-12T10:24:13;101620.16;;;4.17;70.47
57572;BME280;44459;43.522;24.470;2023-02-12T10:26:49;101615.34;;;4.40;67.08
57572;BME280;44459;43.522;24.470;2023-02-12T10:29:22;101630.56;;;4.65;66.47
57572;BME280;44459;43.522;24.470;2023-02-12T10:32:03;101620.41;;;4.87;60.32
57572;BME280;44459;43.522;24.470;2023-02-12T10:34:33;101625.94;;;4.93;59.49
57572;BME280;44459;43.522;24.470;2023-02-12T10:37:04;101627.16;;;4.82;58.20
57572;BME280;44459;43.522;24.470;2023-02-12T10:39:36;101629.72;;;4.98;60.24
57572;BME280;44459;43.522;24.470;2023-02-12T10:42:20;101634.66;;;5.28;57.19
57572;BME280;44459;43.522;24.470;2023-02-12T10:44:48;101634.25;;;5.36;55.98
57572;BME280;44459;43.522;24.470;2023-02-12T10:47:18;101622.19;;;5.40;58.12
57572;BME280;44459;43.522;24.470;2023-02-12T10:49:46;101628.72;;;5.48;57.77
57572;BME280;44459;43.522;24.470;2023-02-12T10:54:55;101627.19;;;5.53;54.80
57572;BME280;44459;43.522;24.470;2023-02-12T10:57:23;101629.16;;;5.39;55.62
57572;BME280;44459;43.522;24.470;2023-02-12T10:59:52;101640.81;;;5.46;55.61
57572;BME280;44459;43.522;24.470;2023-02-12T11:02:22;101639.91;;;5.45;55.46
57572;BME280;44459;43.522;24.470;2023-02-12T11:04:49;101632.16;;;5.47;53.42
57572;BME280;44459;43.522;24.470;2023-02-12T11:07:15;101635.88;;;5.52;55.13
57572;BME280;44459;43.522;24.470;2023-02-12T11:09:43;101641.44;;;5.58;54.95
57572;BME280;44459;43.522;24.470;2023-02-12T11:15:27;101631.47;;;5.51;54.80
57572;BME280;44459;43.522;24.470;2023-02-12T11:18:00;101645.53;;;5.53;56.36
57572;BME280;44459;43.522;24.470;2023-02-12T11:20:28;101647.38;;;5.55;56.84
57572;BME280;44459;43.522;24.470;2023-02-12T11:23:36;101641.09;;;5.52;55.99
57572;BME280;44459;43.522;24.470;2023-02-12T11:28:58;101655.63;;;5.63;57.02
57572;BME280;44459;43.522;24.470;2023-02-12T11:31:25;101652.88;;;5.60;61.71
57572;BME280;44459;43.522;24.470;2023-02-12T11:34:17;101654.22;;;5.34;65.69
57572;BME280;44459;43.522;24.470;2023-02-12T11:36:48;101651.41;;;5.31;65.56
57572;BME280;44459;43.522;24.470;2023-02-12T11:39:28;101658.41;;;5.31;66.03
57572;BME280;44459;43.522;24.470;2023-02-12T11:42:01;101655.59;;;5.28;66.12
57572;BME280;44459;43.522;24.470;2023-02-12T11:44:36;101645.81;;;5.06;67.00
57572;BME280;44459;43.522;24.470;2023-02-12T11:47:16;101644.97;;;5.07;67.26
57572;BME280;44459;43.522;24.470;2023-02-12T11:49:54;101650.75;;;5.18;66.58
57572;BME280;44459;43.522;24.470;2023-02-12T11:52:24;101644.09;;;5.24;66.16
57572;BME280;44459;43.522;24.470;2023-02-12T11:54:55;101648.28;;;5.21;65.90
57572;BME280;44459;43.522;24.470;2023-02-12T12:00:12;101650.38;;;5.28;65.58
57572;BME280;44459;43.522;24.470;2023-02-12T12:02:44;101641.34;;;5.39;67.11
57572;BME280;44459;43.522;24.470;2023-02-12T12:05:17;101655.69;;;5.29;66.33
57572;BME280;44459;43.522;24.470;2023-02-12T12:07:49;101652.78;;;5.23;65.83
57572;BME280;44459;43.522;24.470;2023-02-12T12:10:45;101661.00;;;5.13;67.10
57572;BME280;44459;43.522;24.470;2023-02-12T12:13:28;101648.56;;;5.09;67.78
57572;BME280;44459;43.522;24.470;2023-02-12T12:16:05;101661.72;;;5.11;67.90
57572;BME280;44459;43.522;24.470;2023-02-12T12:18:55;101653.25;;;4.98;68.51
57572;BME280;44459;43.522;24.470;2023-02-12T12:22:04;101659.59;;;4.86;70.99
57572;BME280;44459;43.522;24.470;2023-02-12T12:24:43;101669.88;;;4.99;70.08
57572;BME280;44459;43.522;24.470;2023-02-12T12:27:23;101670.69;;;4.98;70.09
57572;BME280;44459;43.522;24.470;2023-02-12T12:33:21;101676.09;;;4.69;69.00
57572;BME280;44459;43.522;24.470;2023-02-12T12:38:39;101671.78;;;4.69;70.40
57572;BME280;44459;43.522;24.470;2023-02-12T12:41:40;101679.41;;;4.65;72.06
57572;BME280;44459;43.522;24.470;2023-02-12T12:46:53;101675.94;;;4.82;71.69
57572;BME280;44459;43.522;24.470;2023-02-12T12:49:33;101675.78;;;4.79;70.33
57572;BME280;44459;43.522;24.470;2023-02-12T12:55:17;101690.91;;;4.68;71.01
57572;BME280;44459;43.522;24.470;2023-02-12T12:57:57;101697.84;;;4.84;70.18
57572;BME280;44459;43.522;24.470;2023-02-12T13:08:54;101710.63;;;5.12;67.32
57572;BME280;44459;43.522;24.470;2023-02-12T13:17:19;101723.06;;;5.16;68.51
57572;BME280;44459;43.522;24.470;2023-02-12T13:19:53;101722.63;;;5.24;67.79
57572;BME280;44459;43.522;24.470;2023-02-12T13:22:33;101726.78;;;5.21;67.78
57572;BME280;44459;43.522;24.470;2023-02-12T13:25:06;101736.56;;;5.23;67.42
57572;BME280;44459;43.522;24.470;2023-02-12T13:27:41;101732.22;;;5.24;67.82
57572;BME280;44459;43.522;24.470;2023-02-12T13:35:18;101747.59;;;5.18;67.41
57572;BME280;44459;43.522;24.470;2023-02-12T13:37:48;101747.13;;;5.08;68.13
57572;BME280;44459;43.522;24.470;2023-02-12T13:40:22;101756.28;;;5.17;68.96
57572;BME280;44459;43.522;24.470;2023-02-12T13:54:16;101777.28;;;4.70;74.12
57572;BME280;44459;43.522;24.470;2023-02-12T13:56:53;101779.97;;;4.55;76.23
57572;BME280;44459;43.522;24.470;2023-02-12T14:04:55;101784.59;;;4.44;78.09
57572;BME280;44459;43.522;24.470;2023-02-12T14:07:24;101788.13;;;4.45;79.34
57572;BME280;44459;43.522;24.470;2023-02-12T14:10:05;101787.81;;;4.55;79.63
57572;BME280;44459;43.522;24.470;2023-02-12T14:12:33;101787.50;;;4.65;79.60
57572;BME280;44459;43.522;24.470;2023-02-12T14:25:00;101819.47;;;4.29;81.32
57572;BME280;44459;43.522;24.470;2023-02-12T14:27:34;101810.28;;;4.21;81.32
57572;BME280;44459;43.522;24.470;2023-02-12T14:35:46;101822.25;;;4.32;79.92
57572;BME280;44459;43.522;24.470;2023-02-12T14:40:41;101819.34;;;4.27;79.21
57572;BME280;44459;43.522;24.470;2023-02-12T14:43:36;101821.28;;;4.30;79.13
57572;BME280;44459;43.522;24.470;2023-02-12T14:48:56;101819.34;;;4.27;78.24
57572;BME280;44459;43.522;24.470;2023-02-12T14:53:59;101821.66;;;4.37;77.05
57572;BME280;44459;43.522;24.470;2023-02-12T14:56:25;101817.19;;;4.35;76.26
57572;BME280;44459;43.522;24.470;2023-02-12T14:58:53;101821.94;;;4.42;75.95
57572;BME280;44459;43.522;24.470;2023-02-12T15:01:32;101825.47;;;4.42;76.65
57572;BME280;44459;43.522;24.470;2023-02-12T15:04:37;101824.03;;;4.47;75.87
57572;BME280;44459;43.522;24.470;2023-02-12T15:07:12;101832.72;;;4.48;75.90
57572;BME280;44459;43.522;24.470;2023-02-12T15:12:30;101836.25;;;4.48;75.69
57572;BME280;44459;43.522;24.470;2023-02-12T15:17:53;101828.88;;;4.41;74.05
57572;BME280;44459;43.522;24.470;2023-02-12T15:20:22;101840.25;;;4.42;74.62
57572;BME280;44459;43.522;24.470;2023-02-12T15:22:49;101840.53;;;4.32;75.91
57572;BME280;44459;43.522;24.470;2023-02-12T15:27:46;101866.00;;;4.20;78.92
57572;BME280;44459;43.522;24.470;2023-02-12T15:30:23;101858.78;;;4.16;79.28
57572;BME280;44459;43.522;24.470;2023-02-12T15:32:50;101870.59;;;4.09;80.00